createdAt,value
2022-12-03T00:01:48.970Z,95.89
2022-12-03T00:04:51.882Z,95.45
2022-12-03T00:07:54.326Z,95.32
2022-12-03T00:10:56.796Z,94.91
2022-12-03T00:13:58.952Z,96.02
2022-12-03T00:17:01.574Z,95.54
2022-12-03T00:20:05.760Z,95.59
2022-12-03T00:23:08.084Z,94.03
2022-12-03T00:26:10.284Z,94.76
2022-12-03T00:29:12.815Z,94.62
2022-12-03T00:32:15.047Z,94.07
2022-12-03T00:35:17.594Z,94.29
2022-12-03T00:38:19.860Z,94.83
2022-12-03T00:41:22.368Z,95.40
2022-12-03T00:44:24.643Z,95.94
2022-12-03T00:47:27.167Z,97.23
2022-12-03T00:50:29.291Z,97.53
2022-12-03T00:53:31.805Z,98.26
2022-12-03T00:56:34.117Z,98.46
2022-12-03T00:59:36.584Z,98.57
2022-12-03T01:02:38.780Z,97.34
2022-12-03T01:05:41.202Z,97.53
2022-12-03T01:08:44.234Z,97.67
2022-12-03T01:11:46.678Z,98.13
2022-12-03T01:14:49.253Z,96.90
2022-12-03T01:17:54.184Z,96.65
2022-12-03T01:20:56.285Z,96.52
2022-12-03T01:23:58.865Z,95.78
2022-12-03T01:27:01.217Z,95.44
2022-12-03T01:30:04.808Z,94.27
2022-12-03T01:33:07.494Z,95.04
2022-12-03T01:36:09.927Z,96.29
2022-12-03T01:39:12.078Z,95.50
2022-12-03T01:42:21.976Z,95.17
2022-12-03T01:45:24.363Z,95.81
2022-12-03T01:48:35.437Z,95.61
2022-12-03T01:51:37.608Z,95.86
2022-12-03T01:54:53.501Z,95.89
2022-12-03T01:57:59.406Z,95.12
2022-12-03T02:01:07.178Z,94.65
2022-12-03T02:04:15.558Z,94.48
2022-12-03T02:07:22.078Z,94.61
2022-12-03T02:10:34.637Z,95.15
2022-12-03T02:13:37.720Z,95.56
2022-12-03T02:16:41.798Z,95.66
2022-12-03T02:19:44.586Z,95.88
2022-12-03T02:23:13.560Z,96.20
2022-12-03T02:26:16.067Z,96.01
2022-12-03T02:29:18.546Z,95.96
2022-12-03T02:32:23.467Z,95.15
2022-12-03T02:35:36.480Z,94.85
2022-12-03T02:38:39.839Z,94.88
2022-12-03T02:42:00.993Z,93.52
2022-12-03T02:45:11.402Z,93.64
2022-12-03T02:48:28.304Z,94.45
2022-12-03T02:51:31.291Z,95.11
2022-12-03T02:54:33.729Z,95.12
2022-12-03T02:57:37.937Z,95.02
2022-12-03T03:00:41.288Z,94.96
2022-12-03T03:03:45.481Z,94.49
2022-12-03T03:06:47.932Z,95.73
2022-12-03T03:09:50.648Z,95.58
2022-12-03T03:12:54.998Z,96.20
2022-12-03T03:15:57.499Z,95.87
2022-12-03T03:19:00.111Z,95.24
2022-12-03T03:22:02.550Z,95.11
2022-12-03T03:25:05.883Z,95.40
2022-12-03T03:28:08.942Z,94.98
2022-12-03T03:31:14.241Z,95.10
2022-12-03T03:34:17.492Z,94.00
2022-12-03T03:37:19.868Z,94.64
2022-12-03T03:40:22.392Z,93.88
2022-12-03T03:43:25.288Z,93.91
2022-12-03T03:46:28.720Z,94.26
2022-12-03T03:49:31.291Z,93.83
2022-12-03T03:52:36.251Z,93.19
2022-12-03T03:55:39.498Z,93.22
2022-12-03T03:58:41.981Z,93.40
2022-12-03T04:01:45.551Z,93.49
2022-12-03T04:04:49.020Z,93.35
2022-12-03T04:07:51.557Z,93.57
2022-12-03T04:11:13.005Z,93.18
2022-12-03T04:14:15.218Z,92.39
2022-12-03T04:17:17.673Z,93.08
2022-12-03T04:20:19.776Z,93.34
2022-12-03T04:23:25.000Z,93.74
2022-12-03T04:26:50.353Z,93.39
2022-12-03T04:29:53.322Z,94.10
2022-12-03T04:33:14.162Z,94.77
2022-12-03T04:36:17.036Z,94.04
2022-12-03T04:39:19.818Z,93.55
2022-12-03T04:42:22.260Z,94.52
2022-12-03T04:45:25.483Z,94.73
2022-12-03T04:48:27.938Z,94.25
2022-12-03T04:51:30.151Z,95.49
2022-12-03T04:54:36.348Z,95.16
2022-12-03T04:57:38.453Z,94.52
2022-12-03T05:00:40.831Z,94.82
2022-12-03T05:03:42.953Z,94.71
2022-12-03T05:06:45.879Z,94.72
2022-12-03T05:09:48.091Z,95.41
2022-12-03T05:12:50.463Z,96.12
2022-12-03T05:15:53.584Z,95.55
2022-12-03T05:18:56.271Z,96.57
2022-12-03T05:21:58.458Z,97.13
2022-12-03T05:25:00.928Z,97.60
2022-12-03T05:28:04.096Z,96.78
2022-12-03T05:31:06.820Z,97.01
2022-12-03T05:34:10.090Z,96.78
2022-12-03T05:37:12.507Z,98.13
2022-12-03T05:40:15.406Z,98.18
2022-12-03T05:43:18.061Z,97.13
2022-12-03T05:46:20.498Z,96.34
2022-12-03T05:49:22.945Z,96.99
2022-12-03T05:52:25.166Z,95.50
2022-12-03T05:55:28.000Z,95.90
2022-12-03T05:58:31.285Z,94.78
2022-12-03T06:01:34.495Z,95.67
2022-12-03T06:04:36.881Z,95.48
2022-12-03T06:07:39.830Z,94.10
2022-12-03T06:10:42.443Z,94.63
2022-12-03T06:13:44.790Z,95.12
2022-12-03T06:16:47.329Z,95.56
2022-12-03T06:19:49.514Z,94.97
2022-12-03T06:22:51.953Z,95.11
2022-12-03T06:25:54.105Z,95.64
2022-12-03T06:28:56.829Z,94.39
2022-12-03T06:31:58.930Z,93.47
2022-12-03T06:35:01.413Z,93.32
2022-12-03T06:38:03.539Z,94.01
2022-12-03T06:41:05.968Z,95.10
2022-12-03T06:44:08.098Z,94.79
2022-12-03T06:47:10.539Z,95.09
2022-12-03T06:50:13.753Z,93.61
2022-12-03T06:53:16.534Z,93.95
2022-12-03T06:56:22.046Z,92.96
2022-12-03T06:59:26.787Z,92.97
2022-12-03T07:02:29.033Z,93.30
2022-12-03T07:05:33.814Z,94.81
2022-12-03T07:08:35.966Z,94.82
2022-12-03T07:11:41.378Z,94.85
2022-12-03T07:14:45.887Z,93.51
2022-12-03T07:17:48.509Z,93.70
2022-12-03T07:20:50.814Z,93.95
2022-12-03T07:23:55.269Z,93.04
2022-12-03T07:26:57.534Z,93.39
2022-12-03T07:29:59.984Z,93.05
2022-12-03T07:33:02.380Z,93.17
2022-12-03T07:36:05.075Z,92.38
2022-12-03T07:39:08.319Z,92.16
2022-12-03T07:42:11.036Z,92.64
2022-12-03T07:45:13.226Z,92.37
2022-12-03T07:48:15.634Z,92.91
2022-12-03T07:51:17.818Z,93.13
2022-12-03T07:54:21.547Z,92.12
2022-12-03T07:57:23.835Z,92.04
2022-12-03T08:00:30.852Z,92.90
2022-12-03T08:03:33.262Z,93.18
2022-12-03T08:06:35.561Z,92.47
2022-12-03T08:09:40.129Z,93.50
2022-12-03T08:12:42.561Z,92.85
2022-12-03T08:15:45.397Z,92.85
2022-12-03T08:18:48.614Z,91.71
2022-12-03T08:21:54.044Z,92.34
2022-12-03T08:24:58.806Z,91.74
2022-12-03T08:28:13.146Z,89.91
2022-12-03T08:31:19.896Z,89.25
2022-12-03T08:34:27.281Z,89.67
2022-12-03T08:37:29.910Z,89.43
2022-12-03T08:40:39.491Z,90.52
2022-12-03T08:43:43.792Z,89.84
2022-12-03T08:46:52.794Z,90.34
2022-12-03T08:50:25.620Z,90.35
2022-12-03T08:53:35.158Z,90.86
2022-12-03T08:56:37.554Z,90.47
2022-12-03T08:59:44.181Z,90.17
2022-12-03T09:02:51.348Z,89.16
2022-12-03T09:05:53.773Z,88.87
2022-12-03T09:08:56.099Z,88.70
2022-12-03T09:11:58.599Z,87.57
2022-12-03T09:15:01.735Z,88.02
2022-12-03T09:18:04.276Z,87.02
2022-12-03T09:21:06.457Z,87.60
2022-12-03T09:24:08.958Z,86.75
2022-12-03T09:27:11.093Z,87.37
2022-12-03T09:30:13.773Z,87.34
2022-12-03T09:33:16.004Z,85.35
2022-12-03T09:36:19.007Z,83.41
2022-12-03T09:39:21.141Z,84.04
2022-12-03T09:42:24.701Z,81.52
2022-12-03T09:45:28.014Z,82.55
2022-12-03T09:48:30.626Z,82.38
2022-12-03T09:51:35.476Z,83.59
2022-12-03T09:54:42.766Z,82.59
2022-12-03T09:57:48.392Z,81.16
2022-12-03T10:00:52.330Z,80.39
2022-12-03T10:03:54.968Z,79.88
2022-12-03T10:06:58.811Z,77.99
2022-12-03T10:10:01.281Z,78.73
2022-12-03T10:13:06.345Z,79.69
2022-12-03T10:16:12.140Z,79.76
2022-12-03T10:19:27.603Z,78.70
2022-12-03T10:22:36.703Z,77.30
2022-12-03T10:26:04.953Z,78.10
2022-12-03T10:29:16.978Z,78.04
2022-12-03T10:32:24.234Z,76.87
2022-12-03T10:35:41.511Z,79.44
2022-12-03T10:38:43.781Z,78.45
2022-12-03T10:41:46.301Z,79.88
2022-12-03T10:44:48.600Z,78.54
2022-12-03T10:48:20.135Z,77.62
2022-12-03T10:51:22.453Z,78.80
2022-12-03T10:54:27.383Z,79.45
2022-12-03T10:57:30.663Z,80.61
2022-12-03T11:00:33.090Z,78.82
2022-12-03T11:03:36.794Z,78.94
2022-12-03T11:06:39.303Z,78.74
2022-12-03T11:09:45.079Z,78.72
2022-12-03T11:13:25.571Z,77.42
2022-12-03T11:16:40.076Z,76.51
2022-12-03T11:19:46.791Z,76.37
2022-12-03T11:22:58.985Z,75.27
2022-12-03T11:26:01.685Z,75.49
2022-12-03T11:29:05.332Z,74.99
2022-12-03T11:32:08.690Z,76.86
2022-12-03T11:35:23.002Z,76.22
2022-12-03T11:38:37.720Z,76.10
2022-12-03T11:41:39.872Z,76.74
2022-12-03T11:44:43.128Z,75.86
2022-12-03T11:48:17.330Z,76.34
2022-12-03T11:51:24.188Z,76.74
2022-12-03T11:54:26.615Z,76.26
2022-12-03T11:57:33.950Z,76.38
2022-12-03T12:00:36.154Z,78.25
2022-12-03T12:03:47.511Z,76.98
2022-12-03T12:06:53.299Z,78.65
2022-12-03T12:09:57.255Z,77.47
2022-12-03T12:12:59.751Z,79.58
2022-12-03T12:16:06.966Z,78.54
2022-12-03T12:19:43.004Z,78.99
2022-12-03T12:22:45.410Z,77.87
2022-12-03T12:25:53.766Z,79.49
2022-12-03T12:28:56.858Z,77.75
2022-12-03T12:32:12.081Z,78.54
2022-12-03T12:35:25.693Z,78.61
2022-12-03T12:38:28.745Z,78.53
2022-12-03T12:41:31.279Z,78.42
2022-12-03T12:44:33.390Z,79.18
2022-12-03T12:47:36.912Z,78.20
2022-12-03T12:50:40.394Z,78.86
2022-12-03T12:53:42.985Z,79.51
2022-12-03T12:56:50.517Z,78.66
2022-12-03T12:59:56.002Z,79.92
2022-12-03T13:03:01.270Z,80.62
2022-12-03T13:06:04.185Z,80.26
2022-12-03T13:09:18.898Z,79.55
2022-12-03T13:12:23.485Z,79.73
2022-12-03T13:15:59.917Z,78.80
2022-12-03T13:19:03.014Z,79.61
2022-12-03T13:22:16.040Z,77.91
2022-12-03T13:25:59.244Z,79.46
2022-12-03T13:29:06.198Z,79.47
2022-12-03T13:32:14.236Z,77.68
2022-12-03T13:35:30.155Z,78.22
2022-12-03T13:38:32.562Z,78.59
2022-12-03T13:41:53.516Z,78.26
2022-12-03T13:44:56.442Z,79.15
2022-12-03T13:48:01.085Z,78.63
2022-12-03T13:51:23.885Z,79.16
2022-12-03T13:54:31.274Z,79.01
2022-12-03T13:57:33.697Z,79.08
2022-12-03T14:00:36.047Z,80.72
2022-12-03T14:03:39.634Z,78.83
2022-12-03T14:06:41.922Z,79.81
2022-12-03T14:09:44.929Z,79.64
2022-12-03T14:12:47.106Z,79.87
2022-12-03T14:15:49.506Z,79.37
2022-12-03T14:18:51.627Z,80.11
2022-12-03T14:21:54.066Z,80.94
2022-12-03T14:24:57.644Z,80.88
2022-12-03T14:28:00.872Z,81.14
2022-12-03T14:31:02.989Z,82.04
2022-12-03T14:34:05.478Z,81.31
2022-12-03T14:37:07.733Z,81.07
2022-12-03T14:40:10.579Z,81.94
2022-12-03T14:43:14.777Z,81.75
2022-12-03T14:46:17.221Z,82.94
2022-12-03T14:49:19.370Z,83.01
2022-12-03T14:52:23.067Z,83.87
2022-12-03T14:55:25.259Z,83.67
2022-12-03T14:58:28.009Z,84.78
2022-12-03T15:01:30.178Z,85.29
2022-12-03T15:04:32.730Z,85.58
2022-12-03T15:07:35.017Z,85.83
2022-12-03T15:10:37.502Z,85.94
2022-12-03T15:13:39.747Z,85.45
2022-12-03T15:16:42.495Z,84.99
2022-12-03T15:19:44.657Z,85.83
2022-12-03T15:22:47.357Z,85.25
2022-12-03T15:25:49.542Z,86.03
2022-12-03T15:28:53.031Z,85.77
2022-12-03T15:31:55.323Z,86.02
2022-12-03T15:34:57.843Z,86.00
2022-12-03T15:38:00.550Z,85.78
2022-12-03T15:41:20.930Z,85.83
2022-12-03T15:44:23.065Z,86.52
2022-12-03T15:47:25.651Z,86.22
2022-12-03T15:50:27.787Z,86.45
2022-12-03T15:53:30.249Z,86.85
2022-12-03T15:56:32.680Z,86.81
2022-12-03T15:59:35.204Z,86.74
2022-12-03T16:02:37.357Z,87.22
2022-12-03T16:05:42.877Z,87.65
2022-12-03T16:08:45.094Z,87.72
2022-12-03T16:11:48.952Z,88.24
2022-12-03T16:14:51.481Z,88.12
2022-12-03T16:17:53.922Z,88.42
2022-12-03T16:20:58.122Z,88.36
2022-12-03T16:24:01.569Z,88.82
2022-12-03T16:27:03.828Z,89.33
2022-12-03T16:30:07.049Z,89.51
2022-12-03T16:33:09.250Z,90.05
2022-12-03T16:36:14.357Z,90.08
2022-12-03T16:39:16.557Z,89.74
2022-12-03T16:42:19.183Z,89.47
2022-12-03T16:45:27.226Z,90.15
2022-12-03T16:48:30.187Z,90.20
2022-12-03T16:51:32.716Z,90.16
2022-12-03T16:54:39.112Z,90.09
2022-12-03T16:57:41.217Z,89.99
2022-12-03T17:00:43.674Z,90.50
2022-12-03T17:03:45.780Z,90.41
2022-12-03T17:06:48.506Z,90.13
2022-12-03T17:09:50.719Z,90.07
2022-12-03T17:13:09.990Z,90.15
2022-12-03T17:16:12.568Z,90.31
2022-12-03T17:19:15.061Z,90.12
2022-12-03T17:22:17.205Z,90.62
2022-12-03T17:25:19.657Z,90.83
2022-12-03T17:28:21.827Z,90.93
2022-12-03T17:31:24.322Z,90.46
2022-12-03T17:34:26.498Z,90.53
2022-12-03T17:37:28.954Z,90.29
2022-12-03T17:40:31.362Z,91.35
2022-12-03T17:43:34.028Z,91.42
2022-12-03T17:46:36.265Z,92.01
2022-12-03T17:49:38.807Z,91.86
2022-12-03T17:52:41.035Z,92.39
2022-12-03T17:55:45.175Z,93.34
2022-12-03T17:58:47.546Z,93.78
2022-12-03T18:01:50.042Z,93.78
2022-12-03T18:04:52.554Z,93.64
2022-12-03T18:07:54.759Z,93.84
2022-12-03T18:10:57.201Z,94.17
2022-12-03T18:14:01.488Z,94.15
2022-12-03T18:17:03.948Z,94.55
2022-12-03T18:20:07.284Z,94.70
2022-12-03T18:23:09.691Z,94.29
2022-12-03T18:26:12.024Z,94.55
2022-12-03T18:29:14.535Z,94.29
2022-12-03T18:32:28.448Z,94.26
2022-12-03T18:35:32.031Z,94.96
2022-12-03T18:38:34.219Z,94.80
2022-12-03T18:41:36.897Z,94.88
2022-12-03T18:44:39.088Z,94.45
2022-12-03T18:47:42.331Z,94.48
2022-12-03T18:50:45.512Z,93.65
2022-12-03T18:53:49.330Z,93.81
2022-12-03T18:56:51.474Z,93.44
2022-12-03T18:59:54.128Z,93.24
2022-12-03T19:03:04.697Z,93.73
2022-12-03T19:06:17.184Z,93.66
2022-12-03T19:09:21.335Z,94.29
2022-12-03T19:12:23.813Z,94.56
2022-12-03T19:15:25.944Z,94.82
2022-12-03T19:18:29.029Z,95.30
2022-12-03T19:21:33.903Z,94.69
2022-12-03T19:24:36.492Z,94.68
2022-12-03T19:27:40.400Z,95.30
2022-12-03T19:30:42.829Z,95.03
2022-12-03T19:33:46.359Z,94.66
2022-12-03T19:36:49.093Z,94.73
2022-12-03T19:39:54.768Z,94.32
2022-12-03T19:42:57.415Z,94.44
2022-12-03T19:46:08.833Z,94.44
2022-12-03T19:49:12.011Z,94.39
2022-12-03T19:52:15.638Z,95.19
2022-12-03T19:55:19.522Z,95.51
2022-12-03T19:58:21.982Z,95.64
2022-12-03T20:01:27.747Z,95.62
2022-12-03T20:04:30.231Z,95.22
2022-12-03T20:07:32.453Z,95.12
2022-12-03T20:10:35.421Z,94.51
2022-12-03T20:13:37.590Z,94.67
2022-12-03T20:16:41.200Z,93.99
2022-12-03T20:19:43.451Z,93.77
2022-12-03T20:22:46.129Z,93.50
2022-12-03T20:25:48.297Z,92.72
2022-12-03T20:28:53.589Z,92.63
2022-12-03T20:31:55.850Z,92.90
2022-12-03T20:34:58.367Z,92.86
2022-12-03T20:38:00.518Z,92.21
2022-12-03T20:41:05.879Z,92.80
2022-12-03T20:44:10.423Z,92.73
2022-12-03T20:47:12.889Z,93.01
2022-12-03T20:50:15.324Z,92.77
2022-12-03T20:53:24.697Z,92.40
2022-12-03T20:56:34.404Z,92.10
2022-12-03T20:59:36.868Z,92.35
2022-12-03T21:02:39.084Z,92.62
2022-12-03T21:05:43.864Z,92.92
2022-12-03T21:08:46.474Z,93.18
2022-12-03T21:11:49.539Z,92.96
2022-12-03T21:14:51.999Z,93.43
2022-12-03T21:17:54.473Z,94.32
2022-12-03T21:21:00.257Z,94.09
2022-12-03T21:24:05.021Z,95.21
2022-12-03T21:27:07.179Z,94.63
2022-12-03T21:30:09.939Z,94.41
2022-12-03T21:33:12.129Z,94.62
2022-12-03T21:36:16.967Z,94.74
2022-12-03T21:39:19.350Z,95.28
2022-12-03T21:42:35.711Z,95.38
2022-12-03T21:45:40.621Z,95.68
2022-12-03T21:48:44.875Z,95.91
2022-12-03T21:51:47.066Z,95.79
2022-12-03T21:54:52.459Z,96.15
2022-12-03T21:57:54.664Z,95.99
2022-12-03T22:00:57.186Z,95.92
2022-12-03T22:04:00.169Z,95.78
2022-12-03T22:07:02.877Z,95.72
2022-12-03T22:10:08.660Z,95.53
2022-12-03T22:13:10.841Z,95.18
2022-12-03T22:16:17.350Z,94.77
2022-12-03T22:19:25.942Z,94.53
2022-12-03T22:22:28.643Z,94.67
2022-12-03T22:25:30.825Z,94.58
2022-12-03T22:28:34.437Z,94.34
2022-12-03T22:31:36.714Z,94.48
2022-12-03T22:34:40.925Z,94.40
2022-12-03T22:37:43.134Z,95.14
2022-12-03T22:40:47.023Z,95.63
2022-12-03T22:43:49.781Z,95.23
2022-12-03T22:46:52.371Z,95.17
2022-12-03T22:49:55.185Z,94.91
2022-12-03T22:52:57.995Z,95.05
2022-12-03T22:56:00.558Z,95.33
2022-12-03T22:59:03.065Z,94.83
2022-12-03T23:02:05.543Z,94.95
2022-12-03T23:05:08.020Z,94.11
2022-12-03T23:08:19.512Z,94.49
2022-12-03T23:11:22.346Z,94.76
2022-12-03T23:14:24.496Z,94.68
2022-12-03T23:17:26.933Z,94.16
2022-12-03T23:20:30.362Z,94.51
2022-12-03T23:23:33.902Z,94.82
2022-12-03T23:26:38.539Z,95.68
2022-12-03T23:29:41.057Z,95.70
2022-12-03T23:32:44.370Z,95.48
2022-12-03T23:35:46.986Z,96.26
2022-12-03T23:38:49.386Z,95.27
2022-12-03T23:41:54.695Z,95.45
2022-12-03T23:44:59.125Z,95.63
2022-12-03T23:48:01.548Z,94.95
2022-12-03T23:51:13.015Z,95.04
2022-12-03T23:54:15.917Z,94.27
2022-12-03T23:57:18.991Z,94.44
